Time;durP1;ratioP1;P1;durP2;ratioP2;P2;SDS_P1;SDS_P2;PMS_P1;PMS_P2;Temp;Humidity;BMP_temperature;BMP_pressure;BME280_temperature;BME280_humidity;BME280_pressure;Samples;Min_cycle;Max_cycle;Signal;HPM_P1;HPM_P2
2023/10/10 07:24:40;;;;;;;17.60;15.05;;;;;;;-145.79;97.98;77858.47;5314426;27;20373;-71
2023/10/10 07:26:42;;;;;;;18.02;15.90;;;;;;;-145.79;98.55;77845.75;5283243;28;20047;-71
2023/10/10 07:32:28;;;;;;;17.38;14.55;;;;;;;-145.79;98.48;77830.91;5206841;28;20045;-71
2023/10/10 07:34:59;;;;;;;17.92;15.40;;;;;;;-145.79;98.27;77830.91;5278953;28;20040;-71
2023/10/10 07:37:31;;;;;;;27.63;16.42;;;;;;;-145.79;99.00;77805.47;5288378;28;20040;-71
2023/10/10 07:40:19;;;;;;;16.13;14.20;;;;;;;-145.79;98.40;77824.53;5287992;28;20052;-71
2023/10/10 07:42:51;;;;;;;18.02;15.27;;;;;;;-145.79;97.95;77813.94;5287213;28;20028;-70
2023/10/10 07:45:33;;;;;;;18.35;15.57;;;;;;;-145.79;97.81;77813.94;5288887;28;20025;-71
2023/10/10 07:50:48;;;;;;;15.00;13.38;;;;;;;-145.79;98.18;77775.78;5278775;28;20091;-70
2023/10/10 07:53:20;;;;;;;18.17;13.85;;;;;;;-145.79;97.68;77788.50;5288072;28;20048;-70
2023/10/10 07:58:44;;;;;;;13.73;12.32;;;;;;;-145.79;97.86;77752.47;5292279;28;20399;-71
2023/10/10 08:01:16;;;;;;;18.65;15.52;;;;;;;-145.79;96.99;77754.59;5286203;28;20023;-71
2023/10/10 08:03:48;;;;;;;16.85;14.13;;;;;;;-145.79;96.79;77754.59;5288961;28;20472;-71
2023/10/10 08:06:22;;;;;;;15.82;13.80;;;;;;;-145.79;97.34;77746.09;5291629;28;20039;-71
2023/10/10 08:11:45;;;;;;;16.45;11.80;;;;;;;-145.79;98.42;77712.19;5287143;28;20112;-71
2023/10/10 08:14:17;;;;;;;14.38;13.00;;;;;;;-145.79;96.59;77729.16;5291081;28;20044;-71
2023/10/10 08:16:50;;;;;;;16.25;12.95;;;;;;;-145.79;95.63;77731.28;5291191;28;20020;-71
2023/10/10 08:19:33;;;;;;;17.20;13.18;;;;;;;-145.79;95.96;77739.75;5286262;28;20025;-71
2023/10/10 08:22:12;;;;;;;14.13;12.40;;;;;;;-145.79;96.28;77737.63;5290143;28;20574;-71
2023/10/10 08:24:43;;;;;;;16.00;14.15;;;;;;;-145.79;96.54;77720.66;5303347;28;20060;-71
2023/10/10 08:27:15;;;;;;;15.02;13.15;;;;;;;-145.79;96.15;77724.91;5303348;28;20073;-71
2023/10/10 08:29:47;;;;;;;14.98;13.38;;;;;;;-145.79;95.33;77720.66;5314006;28;20475;-71
2023/10/10 08:32:18;;;;;;;14.40;12.90;;;;;;;-145.79;95.58;77712.19;5309563;28;20099;-70
2023/10/10 08:34:50;;;;;;;13.45;11.95;;;;;;;-145.79;94.96;77712.19;5296336;28;20108;-69
2023/10/10 08:37:27;;;;;;;15.20;12.68;;;;;;;-145.79;95.33;77716.44;5295179;28;20053;-69
2023/10/10 08:40:15;;;;;;;15.05;12.43;;;;;;;-145.79;95.23;77716.44;5293000;28;20017;-70
2023/10/10 08:42:49;;;;;;;17.02;12.50;;;;;;;-145.79;95.29;77712.19;5290930;28;20058;-70
2023/10/10 08:45:24;;;;;;;13.85;12.40;;;;;;;-145.79;95.14;77699.47;5292439;28;20487;-70
2023/10/10 08:48:00;;;;;;;;;;;;;;;-145.79;95.02;77688.88;5293822;28;20032;-71
2023/10/10 08:50:32;;;;;;;14.77;11.20;;;;;;;-145.79;95.65;77667.69;5298263;28;19919;-72
2023/10/10 08:53:05;;;;;;;14.93;12.77;;;;;;;-145.79;94.48;77691.00;5293867;28;20485;-71
2023/10/10 08:55:38;;;;;;;11.32;10.13;;;;;;;-145.79;95.53;77652.84;5297340;28;20036;-72
2023/10/10 08:58:12;;;;;;;13.30;11.82;;;;;;;-145.79;94.04;77657.06;5297824;28;20059;-70
2023/10/10 09:00:44;;;;;;;13.68;11.27;;;;;;;-145.79;94.45;77640.13;5294486;28;20039;-71
2023/10/10 09:03:15;;;;;;;13.63;12.18;;;;;;;-145.79;92.09;77661.31;5294578;28;20468;-71
2023/10/10 09:05:47;;;;;;;14.65;11.80;;;;;;;-145.79;92.42;77657.06;5298214;28;20024;-70
2023/10/10 09:08:26;;;;;;;14.02;11.75;;;;;;;-145.79;91.59;77652.84;5292769;28;20037;-71
2023/10/10 09:10:58;;;;;;;12.73;11.35;;;;;;;-145.79;91.90;77646.47;5294236;28;20060;-71
2023/10/10 09:13:31;;;;;;;14.93;11.93;;;;;;;-145.79;90.97;77644.34;5294402;28;20420;-71
2023/10/10 09:16:07;;;;;;;18.15;16.27;;;;;;;-145.79;90.95;77633.75;5289125;28;20029;-71
2023/10/10 09:18:38;;;;;;;19.98;17.85;;;;;;;-145.79;91.33;77612.56;5295862;28;20038;-71
2023/10/10 09:21:18;;;;;;;14.00;11.57;;;;;;;-145.79;90.61;77610.44;5293636;28;20588;-71
2023/10/10 09:24:07;;;;;;;12.82;11.35;;;;;;;-145.79;90.89;77591.38;5293030;28;20040;-71
2023/10/10 09:26:42;;;;;;;15.68;10.50;;;;;;;-145.79;89.79;77580.75;5292752;28;20063;-70
2023/10/10 09:29:29;;;;;;;16.73;12.45;;;;;;;-145.79;88.40;77589.25;5295061;28;20024;-69
2023/10/10 09:32:02;;;;;;;13.05;11.65;;;;;;;-145.79;87.90;77593.47;5291952;28;20043;-69
2023/10/10 09:34:40;;;;;;;16.27;11.75;;;;;;;-145.79;88.18;77587.13;5287442;28;20032;-70
2023/10/10 09:37:17;;;;;;;15.75;10.93;;;;;;;-145.79;88.53;77568.03;5292802;28;20483;-71
2023/10/10 09:39:55;;;;;;;12.30;9.95;;;;;;;-145.79;87.63;77576.53;5296662;28;20501;-70
2023/10/10 09:42:45;;;;;;;12.50;10.57;;;;;;;-145.79;87.34;77570.16;5293554;28;20059;-70
2023/10/10 09:45:53;;;;;;;40.63;36.90;;;;;;;-145.79;86.59;77551.09;5286325;28;20095;-70
2023/10/10 09:51:16;;;;;;;13.80;11.25;;;;;;;-145.79;85.57;77544.72;5263966;28;20028;-70
2023/10/10 09:53:47;;;;;;;13.23;10.07;;;;;;;-145.79;85.05;77538.38;5298043;28;20487;-70
2023/10/10 09:56:21;;;;;;;12.38;10.50;;;;;;;-145.79;84.68;77529.88;5298588;28;20071;-70
2023/10/10 09:58:53;;;;;;;11.68;9.93;;;;;;;-145.79;84.55;77525.66;5292839;28;20020;-68
2023/10/10 10:01:25;;;;;;;13.60;11.07;;;;;;;-145.79;84.76;77510.81;5294576;28;20024;-69
2023/10/10 10:04:03;;;;;;;13.50;10.57;;;;;;;-145.79;84.71;77487.50;5299171;28;20025;-69
2023/10/10 10:06:52;;;;;;;13.63;10.82;;;;;;;-145.79;84.26;77483.25;5284151;28;20586;-70
2023/10/10 10:09:46;;;;;;;13.63;10.63;;;;;;;-145.79;84.42;77470.53;5292046;28;20081;-70
2023/10/10 10:12:55;;;;;;;13.50;11.95;;;;;;;-145.79;84.07;77455.69;5291792;28;20025;-69
2023/10/10 10:15:49;;;;;;;11.52;10.23;;;;;;;-145.79;83.72;77442.97;5292220;28;20450;-70
2023/10/10 10:18:29;;;;;;;13.32;10.27;;;;;;;-145.79;82.80;77434.50;5291113;28;20099;-69
2023/10/10 10:23:55;;;;;;;12.35;10.45;;;;;;;-145.79;81.26;77415.44;5287595;28;20082;-69
2023/10/10 10:26:34;;;;;;;11.90;9.70;;;;;;;-145.79;81.30;77402.72;5291898;28;20480;-70
2023/10/10 10:29:15;;;;;;;14.95;11.43;;;;;;;-145.79;80.30;77409.06;5292504;28;20035;-69
2023/10/10 10:31:51;;;;;;;13.70;10.68;;;;;;;-145.79;80.06;77394.22;5294921;28;20032;-70
2023/10/10 10:34:24;;;;;;;12.43;11.13;;;;;;;-145.79;80.36;77390.00;5291837;28;20031;-69
2023/10/10 10:37:20;;;;;;;12.43;11.13;;;;;;;-145.79;80.39;77370.91;5293852;28;20028;-70
2023/10/10 10:42:53;;;;;;;11.18;10.02;;;;;;;-145.79;80.07;77353.97;5291396;28;20127;-69
2023/10/10 10:45:36;;;;;;;14.05;11.27;;;;;;;-145.79;79.35;77339.13;5296074;28;20035;-69
2023/10/10 10:48:11;;;;;;;14.85;10.32;;;;;;;-145.79;79.06;77337.00;5290519;28;20020;-69
2023/10/10 10:50:42;;;;;;;13.20;10.50;;;;;;;-145.79;78.75;77322.16;5300998;28;20035;-70
2023/10/10 10:53:31;;;;;;;12.70;10.02;;;;;;;-145.79;77.76;77326.41;5293831;28;20028;-69
2023/10/10 11:01:30;;;;;;;14.45;10.23;;;;;;;-145.79;76.76;77284.00;5291016;28;20058;-69
2023/10/10 11:04:05;;;;;;;13.63;10.05;;;;;;;-145.79;76.79;77267.06;5298067;28;20422;-69
2023/10/10 11:06:49;;;;;;;13.95;10.02;;;;;;;-145.79;76.58;77267.06;5290455;28;20094;-69
2023/10/10 11:09:28;;;;;;;11.18;9.07;;;;;;;-145.79;75.61;77254.34;5295019;28;20031;-69
2023/10/10 11:12:02;;;;;;;11.43;9.25;;;;;;;-145.79;75.92;77237.38;5292750;28;20035;-69
2023/10/10 11:14:36;;;;;;;11.30;9.65;;;;;;;-145.79;74.88;77233.16;5287717;28;20225;-70
2023/10/10 11:17:17;;;;;;;12.60;9.90;;;;;;;-145.79;74.85;77224.66;5290987;28;20024;-71
2023/10/10 11:19:53;;;;;;;12.95;9.55;;;;;;;-145.79;74.33;77207.72;5297365;28;20226;-70
2023/10/10 11:22:53;;;;;;;11.80;9.55;;;;;;;-145.79;73.94;77192.88;5294861;28;20043;-67
2023/10/10 11:25:26;;;;;;;14.13;8.73;;;;;;;-145.79;73.64;77180.16;5290843;28;20051;-67
2023/10/10 11:28:03;;;;;;;12.25;7.97;;;;;;;-145.79;73.50;77167.44;5292034;28;20031;-69
2023/10/10 11:30:34;;;;;;;13.18;8.35;;;;;;;-145.79;73.00;77152.59;5296487;28;20123;-70
2023/10/10 11:33:17;;;;;;;12.35;9.13;;;;;;;-145.79;72.64;77146.25;5290048;28;20066;-70
2023/10/10 11:36:01;;;;;;;14.95;10.43;;;;;;;-145.79;72.43;77139.88;5292690;28;20387;-70
2023/10/10 11:38:36;;;;;;;12.15;8.77;;;;;;;-145.79;72.42;77125.03;5282673;28;20467;-71
2023/10/10 11:41:09;;;;;;;10.85;8.27;;;;;;;-145.79;72.33;77120.81;5290119;28;20089;-71
2023/10/10 11:44:02;;;;;;;14.30;8.95;;;;;;;-145.79;72.39;77101.72;5290399;28;20033;-69
2023/10/10 11:46:33;;;;;;;11.50;8.60;;;;;;;-145.79;71.62;77091.13;5291868;28;20032;-69
2023/10/10 11:49:04;;;;;;;11.43;8.25;;;;;;;-145.79;71.97;77086.91;5282535;28;20029;-71
2023/10/10 11:51:36;;;;;;;11.88;8.52;;;;;;;-145.79;71.68;77067.81;5286525;28;20036;-68
2023/10/10 11:54:07;;;;;;;13.15;9.30;;;;;;;-145.79;70.84;77063.59;5292918;28;20107;-68
2023/10/10 11:56:39;;;;;;;11.02;9.15;;;;;;;-145.79;70.45;77052.97;5295078;28;20081;-68
2023/10/10 11:59:10;;;;;;;14.27;9.77;;;;;;;-145.79;69.84;77033.91;5290729;28;20112;-70
2023/10/10 12:01:54;;;;;;;10.52;8.25;;;;;;;-145.79;68.91;77029.66;5295051;28;20078;-68
2023/10/10 12:04:31;;;;;;;10.35;7.95;;;;;;;-145.79;68.22;77016.94;5293710;28;20106;-68
2023/10/10 12:07:04;;;;;;;9.25;8.23;;;;;;;-145.79;67.93;77008.47;5290119;28;20025;-68
2023/10/10 12:09:38;;;;;;;10.23;7.57;;;;;;;-145.79;67.46;77000.00;5291985;28;20029;-68
2023/10/10 12:12:11;;;;;;;11.63;8.40;;;;;;;-145.79;67.41;76985.16;5295247;28;20021;-69
2023/10/10 12:14:42;;;;;;;13.77;8.60;;;;;;;-145.79;66.63;76983.03;5298067;28;20029;-69
2023/10/10 12:17:14;;;;;;;10.70;7.90;;;;;;;-145.79;66.57;76974.56;5289143;28;20027;-69
2023/10/10 12:19:45;;;;;;;9.50;7.38;;;;;;;-145.79;65.42;76968.22;5292944;28;20565;-69
2023/10/10 12:22:17;;;;;;;13.38;8.38;;;;;;;-145.79;65.63;76951.25;5290717;28;20040;-70
2023/10/10 12:24:50;;;;;;;12.32;8.10;;;;;;;-145.79;64.94;76947.00;5293204;28;20082;-68
2023/10/10 12:27:29;;;;;;;11.85;7.40;;;;;;;-145.79;64.99;76936.41;5297517;28;20065;-68
2023/10/10 12:30:01;;;;;;;13.18;8.07;;;;;;;-145.79;63.76;76919.47;5298016;28;20028;-69
2023/10/10 12:32:34;;;;;;;11.52;7.38;;;;;;;-145.79;63.42;76906.75;5293103;28;20052;-69
2023/10/10 12:35:10;;;;;;;11.25;8.02;;;;;;;-145.79;61.91;76904.63;5294020;28;20024;-69
2023/10/10 12:37:44;;;;;;;10.85;7.38;;;;;;;-145.79;61.68;76894.03;5300821;28;20027;-68
2023/10/10 12:40:15;;;;;;;8.27;6.05;;;;;;;-145.79;62.40;76862.25;5290269;28;20071;-69
2023/10/10 12:42:46;;;;;;;9.68;6.90;;;;;;;-145.79;61.56;76862.25;5296500;28;20032;-70
2023/10/10 12:45:19;;;;;;;9.65;6.45;;;;;;;-145.79;60.75;76855.88;5303114;28;20486;-69
2023/10/10 12:47:51;;;;;;;9.05;6.65;;;;;;;-145.79;59.52;76838.94;5298115;28;20016;-69
2023/10/10 12:50:26;;;;;;;9.60;6.63;;;;;;;-145.79;59.27;76828.31;5292695;28;20024;-69
2023/10/10 12:53:07;;;;;;;9.70;6.30;;;;;;;-145.79;58.59;76824.09;5295357;28;20024;-69
2023/10/10 12:55:48;;;;;;;6.80;5.38;;;;;;;-145.79;58.53;76819.84;5292718;28;20685;-70
2023/10/10 12:58:22;;;;;;;7.97;5.65;;;;;;;-145.79;57.29;76805.00;5294642;28;20029;-70
2023/10/10 13:00:54;;;;;;;10.13;6.28;;;;;;;-145.79;56.98;76813.50;5300640;28;20605;-70
2023/10/10 13:03:30;;;;;;;7.57;5.32;;;;;;;-145.79;57.04;76792.31;5301766;28;20040;-70
2023/10/10 13:06:04;;;;;;;10.27;6.38;;;;;;;-145.79;56.73;76777.47;5292921;28;20025;-70
2023/10/10 13:08:48;;;;;;;8.13;5.32;;;;;;;-145.79;56.17;76775.34;5303347;28;20102;-70
2023/10/10 13:11:20;;;;;;;6.78;5.20;;;;;;;-145.79;55.59;76779.59;5296617;28;20055;-68
2023/10/10 13:13:52;;;;;;;5.57;4.72;;;;;;;-145.79;55.99;76771.09;5288336;28;20047;-68
2023/10/10 13:18:58;;;;;;;8.40;5.33;;;;;;;-145.79;55.28;76754.16;5291200;28;20449;-70
2023/10/10 13:21:29;;;;;;;6.78;5.00;;;;;;;-145.79;55.23;76745.69;5297342;28;20070;-69
2023/10/10 13:24:01;;;;;;;10.43;4.97;;;;;;;-145.79;54.55;76758.38;5293936;28;20028;-69
2023/10/10 13:26:32;;;;;;;11.68;6.68;;;;;;;-145.79;54.63;76769.00;5295116;28;20039;-69
2023/10/10 13:29:07;;;;;;;8.43;5.18;;;;;;;-145.79;54.76;76779.59;5295737;28;20031;-69
2023/10/10 13:31:41;;;;;;;7.78;5.68;;;;;;;-145.79;54.73;76777.47;5296451;28;20030;-69
2023/10/10 13:34:13;;;;;;;10.70;5.57;;;;;;;-145.79;53.40;76779.59;5293994;28;20031;-69
2023/10/10 13:36:45;;;;;;;6.07;5.00;;;;;;;-145.79;53.40;76781.69;5297426;28;20028;-69
2023/10/10 13:39:33;;;;;;;8.23;5.95;;;;;;;-145.79;53.75;76775.34;5295297;28;20042;-69
2023/10/10 13:42:06;;;;;;;10.00;5.57;;;;;;;-145.79;54.31;76775.34;5291579;28;20033;-68
2023/10/10 13:44:37;;;;;;;8.18;5.50;;;;;;;-145.79;53.88;76771.09;5296696;28;20103;-68
2023/10/10 13:47:10;;;;;;;10.18;5.50;;;;;;;-145.79;54.46;76775.34;5290636;28;20165;-69
2023/10/10 13:50:03;;;;;;;10.63;5.50;;;;;;;-145.79;54.30;76775.34;5291916;28;20138;-68
2023/10/10 13:52:38;;;;;;;7.53;4.78;;;;;;;-145.79;54.73;76756.28;5300792;28;20110;-69
2023/10/10 13:55:09;;;;;;;7.40;5.57;;;;;;;-145.79;54.87;76758.38;5298277;28;20123;-69
2023/10/10 13:57:42;;;;;;;7.07;4.75;;;;;;;-145.79;54.38;76762.63;5291196;28;20024;-68
2023/10/10 14:00:29;;;;;;;7.40;4.47;;;;;;;-145.79;54.63;76754.16;5300635;28;20059;-69
2023/10/10 14:03:03;;;;;;;7.55;5.30;;;;;;;-145.79;54.51;76741.44;5296126;28;20483;-69
2023/10/10 14:05:37;;;;;;;6.43;4.80;;;;;;;-145.79;53.61;76741.44;5292544;28;20069;-69
2023/10/10 14:08:17;;;;;;;7.72;5.03;;;;;;;-145.79;53.56;76741.44;5300676;28;20486;-70
2023/10/10 14:10:50;;;;;;;8.13;4.88;;;;;;;-145.79;53.06;76737.19;5299972;28;20111;-70
2023/10/10 14:13:23;;;;;;;8.38;5.00;;;;;;;-145.79;51.99;76735.06;5292023;28;20020;-70
2023/10/10 14:15:56;;;;;;;6.82;4.72;;;;;;;-145.79;50.94;76735.06;5292325;28;20027;-70
2023/10/10 14:18:28;;;;;;;7.75;4.85;;;;;;;-145.79;50.35;76726.59;5292789;28;20028;-68
2023/10/10 14:21:08;;;;;;;7.63;4.70;;;;;;;-145.79;50.53;76732.97;5289774;28;20498;-69
2023/10/10 14:23:40;;;;;;;9.73;5.20;;;;;;;-145.79;49.42;76726.59;5290720;28;20048;-70
2023/10/10 14:26:26;;;;;;;8.07;4.45;;;;;;;-145.79;49.42;76720.25;5294154;28;20024;-70
2023/10/10 14:29:04;;;;;;;7.20;4.78;;;;;;;-145.79;49.53;76713.88;5286164;28;20078;-70
2023/10/10 14:31:42;;;;;;;8.18;4.88;;;;;;;-145.79;48.80;76716.00;5286902;28;20027;-69
2023/10/10 14:34:24;;;;;;;9.68;5.53;;;;;;;-145.79;48.99;76701.16;5288831;28;20059;-70
2023/10/10 14:36:55;;;;;;;8.80;4.50;;;;;;;-145.79;48.87;76694.81;5296128;28;20401;-69
2023/10/10 14:39:31;;;;;;;7.25;4.40;;;;;;;-145.79;49.03;76671.50;5291309;28;20023;-68
2023/10/10 14:42:03;;;;;;;13.27;6.22;;;;;;;-145.79;48.59;76673.63;5290827;28;20036;-69
2023/10/10 14:44:40;;;;;;;9.30;4.50;;;;;;;-145.79;48.65;76660.91;5290210;28;20032;-70
2023/10/10 14:47:13;;;;;;;10.52;4.95;;;;;;;-145.79;48.45;76665.16;5291181;28;20127;-69
2023/10/10 14:49:44;;;;;;;12.05;4.20;;;;;;;-145.79;48.48;76656.66;5294853;28;20028;-69
2023/10/10 14:52:17;;;;;;;7.25;5.00;;;;;;;-145.79;47.58;76654.53;5290898;28;20359;-70
2023/10/10 14:54:51;;;;;;;7.38;4.63;;;;;;;-145.79;48.11;76648.19;5287245;28;20467;-70
2023/10/10 14:57:26;;;;;;;8.50;4.80;;;;;;;-145.79;47.85;76656.66;5290969;28;20023;-69
2023/10/10 14:59:57;;;;;;;7.10;4.75;;;;;;;-145.79;47.69;76643.94;5294732;28;20020;-70
2023/10/10 15:02:29;;;;;;;7.35;4.40;;;;;;;-145.79;46.99;76643.94;5289602;28;20044;-69
2023/10/10 15:05:08;;;;;;;8.55;5.32;;;;;;;-145.79;47.44;76637.59;5299821;28;20080;-69
2023/10/10 15:07:41;;;;;;;10.38;5.97;;;;;;;-145.79;47.60;76639.72;5292895;28;20111;-69
2023/10/10 15:10:13;;;;;;;8.10;5.43;;;;;;;-145.79;47.89;76643.94;5294318;28;20070;-69
2023/10/10 15:12:47;;;;;;;8.95;5.35;;;;;;;-145.79;47.19;76639.72;5283260;28;20024;-68
2023/10/10 15:15:19;;;;;;;15.87;12.60;;;;;;;-145.79;47.18;76643.94;5295319;28;20066;-69
2023/10/10 15:17:51;;;;;;;10.02;5.65;;;;;;;-145.79;46.97;76633.34;5291622;28;20029;-68
2023/10/10 15:20:22;;;;;;;12.65;5.00;;;;;;;-145.79;46.25;76635.47;5293961;28;20031;-70
2023/10/10 15:22:54;;;;;;;7.75;4.60;;;;;;;-145.79;46.39;76648.19;5296366;28;20131;-71
2023/10/10 15:25:25;;;;;;;8.88;5.00;;;;;;;-145.79;46.75;76646.06;5293682;28;20031;-70
2023/10/10 15:27:57;;;;;;;7.38;5.13;;;;;;;-145.79;46.93;76652.44;5288182;28;20032;-69
2023/10/10 15:30:29;;;;;;;7.18;4.88;;;;;;;-145.79;46.47;76654.53;5288348;28;20532;-69
2023/10/10 15:33:05;;;;;;;7.10;4.88;;;;;;;-145.79;46.67;76667.25;5290770;28;20033;-70
2023/10/10 15:35:39;;;;;;;9.43;4.80;;;;;;;-145.79;46.65;76679.97;5289474;28;20154;-72
2023/10/10 15:38:11;;;;;;;7.32;5.50;;;;;;;-145.79;47.41;76688.44;5292577;28;20060;-71
2023/10/10 15:40:43;;;;;;;9.05;5.07;;;;;;;-145.79;47.45;76690.56;5288195;28;20041;-70
2023/10/10 15:43:15;;;;;;;9.38;5.55;;;;;;;-145.79;48.31;76688.44;5289159;28;20028;-71
2023/10/10 15:45:47;;;;;;;8.70;5.63;;;;;;;-145.79;48.63;76694.81;5288142;28;20027;-69
2023/10/10 15:48:21;;;;;;;10.68;5.30;;;;;;;-145.79;48.99;76709.66;5294914;28;20020;-69
2023/10/10 15:50:57;;;;;;;10.65;5.00;;;;;;;-145.79;48.99;76711.75;5289634;28;20047;-70
2023/10/10 15:53:28;;;;;;;8.93;5.47;;;;;;;-145.79;49.13;76722.34;5295665;28;20039;-70
2023/10/10 15:56:12;;;;;;;10.73;6.55;;;;;;;-145.79;49.57;76722.34;5297892;28;20028;-70
2023/10/10 15:58:52;;;;;;;13.88;5.00;;;;;;;-145.79;49.76;76728.72;5297442;28;20111;-73
2023/10/10 16:01:28;;;;;;;6.90;4.78;;;;;;;-145.79;50.11;76735.06;5305438;28;20019;-73
2023/10/10 16:04:05;;;;;;;9.10;5.43;;;;;;;-145.79;50.66;76745.69;5294075;28;20029;-73
2023/10/10 16:06:36;;;;;;;10.88;5.78;;;;;;;-145.79;51.30;76749.91;5295126;28;20457;-72
2023/10/10 16:11:43;;;;;;;10.38;6.20;;;;;;;-145.79;50.89;76762.63;5285853;28;20534;-72
2023/10/10 16:14:14;;;;;;;6.97;4.72;;;;;;;-145.79;51.22;76760.50;5293775;28;20031;-73
2023/10/10 16:16:47;;;;;;;12.85;5.35;;;;;;;-145.79;50.83;76775.34;5291813;28;20032;-73
2023/10/10 16:19:29;;;;;;;8.85;4.90;;;;;;;-145.79;50.86;76783.81;5285972;28;20033;-73
2023/10/10 16:22:01;;;;;;;8.82;4.55;;;;;;;-145.79;50.83;76783.81;5294385;28;20515;-72
2023/10/10 16:24:33;;;;;;;7.43;4.63;;;;;;;-145.79;50.70;76792.31;5291834;28;20028;-72
2023/10/10 16:27:04;;;;;;;7.13;4.47;;;;;;;-145.79;51.24;76800.78;5296138;28;20032;-72
2023/10/10 16:29:36;;;;;;;10.10;4.38;;;;;;;-145.79;50.46;76802.91;5296782;28;20148;-73
2023/10/10 16:32:09;;;;;;;8.63;5.18;;;;;;;-145.79;50.93;76809.25;5296273;28;20065;-76
2023/10/10 16:34:43;;;;;;;10.68;4.93;;;;;;;-145.79;51.41;76813.50;5300185;28;20028;-77
2023/10/10 16:37:17;;;;;;;13.27;4.68;;;;;;;-145.79;51.56;76817.72;5289087;28;20395;-76
2023/10/10 16:39:49;;;;;;;6.88;4.15;;;;;;;-145.79;51.76;76830.44;5291914;28;20028;-78
2023/10/10 16:42:23;;;;;;;5.50;4.57;;;;;;;-145.79;51.82;76830.44;5299839;28;20102;-73
2023/10/10 16:44:54;;;;;;;9.85;4.85;;;;;;;-145.79;52.21;76843.16;5296941;28;20099;-72
2023/10/10 16:47:26;;;;;;;11.13;5.47;;;;;;;-145.79;52.79;76851.63;5296513;28;20181;-73
2023/10/10 16:49:59;;;;;;;7.10;5.07;;;;;;;-145.79;52.98;76851.63;5291872;28;20052;-71
2023/10/10 16:52:30;;;;;;;8.18;5.30;;;;;;;-145.79;52.81;76858.00;5293324;28;20024;-73
2023/10/10 16:55:09;;;;;;;7.30;4.72;;;;;;;-145.79;53.08;76858.00;5291696;28;20032;-73
